Weather observations for the past three days for
Ada, Ada Municipal Airport
Metric (Imperial)
Date Time (cdt) Wind (kph) Vis. (km) Weather Sky Cond. Temperature (ºC) Relative Humidity Wind Chill (°C) Heat Index (°C) Pressure Precipitation (cm)
Air Dwpt 6 hour altimeter (cm) sea level (mb) 1 hr 3 hr 6 hr
Max. Min.
06 15:35 S 13 16.09 Fair CLR 39 22 37% 44 75.95 0.0
06 15:15 S 11 16.09 Fair CLR 40 22 35% 46 75.97 0.0
06 14:55 E 13 16.09 Fair CLR 39 22 37% 44 76 0.0
06 14:35 S 17 16.09 A Few Clouds FEW075 39 22 37% 44 76 0.0
06 14:15 Vrbl 9 16.09 Fair CLR 39 23 40% 46 76.02 0.0
06 13:55 Vrbl 9 16.09 Partly Cloudy FEW070 SCT100 37 23 44% 43 76.05 0.0
06 13:35 E 7 16.09 Mostly Cloudy SCT070 BKN095 37 23 44% 43 76.07 0.0
06 13:15 Calm 16.09 Mostly Cloudy BKN070 38 23 42% 44 76.07 0.0
06 12:56 Vrbl 11 16.09 A Few Clouds FEW060 37 23 44% 43 76.1 0.0
06 12:35 Vrbl 7 16.09 Partly Cloudy SCT060 37 24 47% 44 76.12 0.0
06 12:15 Calm 16.09 Fair CLR 37 24 47% 44 76.15 0.0
06 11:55 Vrbl 9 16.09 Fair CLR 37 24 47% 44 76.17 0.0
06 11:35 Vrbl 9 16.09 Fair CLR 36 23 47% 42 76.17 0.0
06 11:15 E 9 16.09 Fair CLR 36 23 47% 42 76.2 0.0
06 10:55 Calm 16.09 Fair CLR 35 24 53% 42 76.2 0.0
06 10:35 Calm 16.09 Fair CLR 34 24 56% 41 76.17 0.0
06 10:15 W 7 16.09 Fair CLR 33 24 59% 39 76.17 0.0
06 09:55 Vrbl 7 16.09 Fair CLR 33 25 63% 41 76.17 0.0
06 09:35 Vrbl 6 16.09 Fair CLR 32 25 67% 39 76.17 0.0
06 09:15 Calm 16.09 Fair CLR 31 25 70% 38 76.17 0.0
06 08:55 Calm 16.09 Fair CLR 30 25 75% 36 76.17 0.0
06 08:35 Calm 16.09 Fair CLR 30 26 79% 37 76.15 0.0
06 08:15 Calm 16.09 Fair CLR 28 26 89% 34 76.15 0.0
06 07:55 Calm 16.09 Fair CLR 27 26 94% 31 76.12 0.0
06 07:35 SE 6 16.09 Fair CLR 25 25 100% 25 76.12 0.0
06 07:15 Calm 16.09 Fair CLR 25 25 100% 25 76.1 0.0
06 06:55 Calm 16.09 Fair CLR 25 25 29.7 24.8 100% 25 76.07 0.0
06 06:35 Calm 16.09 Fair CLR 25 25 100% 25 76.07 0.0
06 06:15 Calm 16.09 Fair CLR 25 25 100% 25 76.07 0.0
06 05:55 Calm 16.09 Fair CLR 26 25 94% 28 76.07 0.0
06 05:35 Calm 16.09 Fair CLR 25 24 94% 26 76.05 0.0
06 05:15 Calm 16.09 Fair CLR 26 24 89% 28 76.05 0.0
06 04:55 Calm 16.09 Fair CLR 27 24 84% 30 76.05 0.0
06 04:35 Calm 16.09 Fair CLR 27 24 84% 30 76.02 0.0
06 04:15 Calm 16.09 Fair CLR 27 24 84% 30 76.02 0.0
06 03:55 S 6 16.09 Fair CLR 28 24 79% 32 76.02 0.0
06 03:35 SW 7 16.09 Fair CLR 28 24 79% 32 76 0.0
06 03:15 SW 11 16.09 Fair CLR 29 24 74% 34 76 0.0
06 02:55 S 9 16.09 Fair CLR 28 24 79% 32 76.02 0.0
06 02:35 S 7 16.09 Fair CLR 29 24 74% 34 76.02 0.0
06 02:15 SW 9 16.09 Fair CLR 29 23 70% 33 76 0.0
06 01:55 SW 9 16.09 Fair CLR 29 24 74% 34 76 0.0
06 01:35 S 6 16.09 Fair CLR 29 24 74% 34 76 0.0
06 01:15 S 9 16.09 Fair CLR 29 24 74% 34 76 0.0
06 00:55 S 9 16.09 Fair CLR 30 24 37.8 28.2 70% 35 76 0.0
06 00:35 S 9 16.09 Fair CLR 29 23 70% 33 76 0.0
06 00:15 SE 9 16.09 Fair CLR 29 23 70% 33 76 0.0
05 23:55 SE 6 16.09 Fair CLR 29 23 70% 33 76 0.0
05 23:36 Calm 16.09 Fair CLR 30 23 66% 34 76.02 0.0
05 23:15 Calm 16.09 A Few Clouds FEW085 30 23 66% 34 76 0.0
05 22:55 Calm 16.09 Mostly Cloudy BKN085 30 23 66% 34 76 0.0
05 22:35 Calm 16.09 A Few Clouds FEW085 30 23 66% 34 76 0.0
05 22:15 Calm 16.09 A Few Clouds FEW075 31 23 62% 35 76 0.0
05 21:55 Calm 16.09 A Few Clouds FEW075 31 23 62% 35 76 0.0
05 21:35 SE 9 16.09 Fair CLR 31 23 62% 35 75.97 0.0
05 21:15 SE 9 16.09 Fair CLR 32 22 55% 36 75.97 0.0
05 20:55 SE 11 16.09 Fair CLR 33 22 52% 37 75.95 0.0
05 20:35 SE 13 16.09 A Few Clouds FEW080 34 22 50% 38 75.92 0.0
05 20:15 SE 7 16.09 Mostly Cloudy SCT080 BKN090 34 21 47% 37 75.9 0.0
05 19:55 S 9 16.09 A Few Clouds FEW090 35 21 44% 38 75.9 0.0
05 19:35 S 9 16.09 Fair CLR 36 21 42% 40 75.9 0.0
05 19:15 SE 11 16.09 Fair CLR 37 21 39% 41 75.87 0.0
05 18:55 SE 11 16.09 Fair CLR 38 21 39.8 36 37% 42 75.87 0.0
05 18:35 S 9 16.09 Fair CLR 38 21 37% 42 75.84 0.0
05 18:15 SE 7 16.09 A Few Clouds FEW080 39 22 37% 44 75.84 0.0
05 17:55 S 6 16.09 Fair CLR 39 22 37% 44 75.84 0.0
05 17:35 E 9 16.09 Fair CLR 39 21 35% 43 75.87 0.0
05 17:15 Vrbl 9 16.09 Fair CLR 39 21 35% 43 75.87 0.0
05 16:55 E 7 16.09 Fair CLR 40 22 35% 46 75.87 0.0
05 16:35 SE 19 16.09 Fair CLR 40 22 35% 46 75.9 0.0
05 16:15 SE 11 16.09 Fair CLR 39 22 37% 44 75.9 0.0
05 15:55 E 17 G 30 16.09 Fair CLR 39 22 37% 44 75.92 0.0
05 15:35 S 13 16.09 Fair CLR 39 21 35% 43 75.95 0.0
05 15:15 S 11 G 26 16.09 Fair CLR 38 21 37% 42 75.97 0.0
05 14:55 SE 15 16.09 Fair CLR 39 22 37% 44 76 0.0
05 12:55 Calm 16.09 A Few Clouds FEW060 36 23 36.8 23.9 47% 42 76.12 0.0
05 12:35 SE 6 16.09 A Few Clouds FEW060 35 23 50% 41 76.12 0.0
05 12:15 Vrbl 9 16.09 Fair CLR 37 23 44% 43 76.15 0.0
05 11:55 S 15 16.09 Fair CLR 36 23 47% 42 76.15 0.0
05 11:36 E 11 16.09 Fair CLR 36 23 47% 42 76.17 0.0
05 11:15 Vrbl 7 16.09 Fair CLR 35 23 50% 41 76.17 0.0
05 10:55 SW 6 16.09 Fair CLR 34 23 53% 39 76.17 0.0
05 10:35 Vrbl 7 16.09 Fair CLR 34 23 53% 39 76.17 0.0
05 10:15 W 11 16.09 Fair CLR 33 23 56% 38 76.17 0.0
05 09:55 SW 13 16.09 Fair CLR 33 24 59% 39 76.15 0.0
05 09:35 SW 13 16.09 Fair CLR 32 23 59% 37 76.15 0.0
05 09:15 S 9 16.09 Fair CLR 31 24 66% 37 76.15 0.0
05 08:55 SW 9 16.09 Fair CLR 30 24 70% 35 76.15 0.0
05 08:35 S 7 16.09 Fair CLR 29 24 74% 34 76.15 0.0
05 08:15 S 6 16.09 Fair CLR 27 25 89% 31 76.15 0.0
05 07:55 Calm 16.09 Fair CLR 26 25 94% 28 76.15 0.0
05 07:35 Calm 16.09 Fair CLR 24 24 100% 23 76.15 0.0
05 07:16 Calm 16.09 Fair CLR 24 24 100% 23 76.12 0.0
05 06:55 Calm 16.09 Fair CLR 24 24 28.2 24.2 100% 23 76.1 0.0
05 06:35 Calm 16.09 Fair CLR 25 25 100% 25 76.1 0.0
05 06:15 Calm 16.09 Fair CLR 24 24 100% 23 76.1 0.0
05 05:55 Calm 16.09 Fair CLR 25 24 94% 26 76.07 0.0
05 05:35 S 6 16.09 Fair CLR 25 24 94% 26 76.07 0.0
05 05:15 SE 7 16.09 Fair CLR 25 24 94% 26 76.07 0.0
05 04:55 SE 7 16.09 Fair CLR 25 24 94% 26 76.05 0.0
05 04:35 S 6 16.09 Fair CLR 25 24 94% 26 76.05 0.0
05 04:15 S 7 16.09 Fair CLR 26 24 89% 28 76.05 0.0
05 03:55 S 6 16.09 Fair CLR 27 24 84% 30 76.05 0.0
05 03:35 Calm 16.09 Fair CLR 26 24 89% 28 76.05 0.0
05 03:15 SE 7 16.09 Fair CLR 26 24 89% 28 76.05 0.0
05 02:55 SE 6 16.09 Fair CLR 26 23 84% 28 76.05 0.0
05 02:35 Calm 16.09 Fair CLR 27 24 84% 30 76.05 0.0
05 02:15 Calm 16.09 Fair CLR 28 24 79% 32 76.05 0.0
05 01:55 S 6 16.09 Fair CLR 28 24 79% 32 76.05 0.0
05 01:35 S 7 16.09 Fair CLR 28 23 74% 31 76.05 0.0
05 01:15 Calm 16.09 Fair CLR 28 23 74% 31 76.07 0.0
05 00:55 Calm 16.09 Fair CLR 28 23 36.1 27.9 74% 31 76.07 0.0
05 00:35 Calm 16.09 Fair CLR 29 23 70% 33 76.07 0.0
05 00:15 S 6 16.09 Fair CLR 29 23 70% 33 76.05 0.0
04 23:55 S 7 16.09 Fair CLR 29 23 70% 33 76.05 0.0
04 23:35 S 6 16.09 Fair CLR 29 23 70% 33 76.07 0.0
04 23:15 S 6 16.09 Fair CLR 30 22 62% 33 76.05 0.0
04 22:55 Calm 16.09 Fair CLR 30 22 62% 33 76.05 0.0
04 22:35 S 6 16.09 Fair CLR 29 22 66% 32 76.05 0.0
04 22:15 S 7 16.09 Fair CLR 29 22 66% 32 76.05 0.0
04 21:55 S 7 16.09 Fair CLR 30 22 62% 33 76.02 0.0
04 21:35 SE 9 16.09 Fair CLR 31 22 59% 35 76.02 0.0
04 21:15 S 9 16.09 Fair CLR 32 22 55% 36 76 0.0
04 20:55 SE 11 16.09 Fair CLR 32 22 55% 36 75.97 0.0
04 20:35 SE 11 16.09 Fair CLR 32 22 55% 36 75.95 0.0
04 20:15 SE 13 16.09 Fair CLR 33 22 52% 37 75.92 0.0
04 19:56 SE 13 16.09 Fair CLR 34 22 50% 38 75.92 0.0
04 19:35 SE 17 16.09 Fair CLR 35 22 47% 39 75.9 0.0
04 19:15 SE 17 16.09 Fair CLR 35 22 47% 39 75.9 0.0
04 18:55 SE 22 16.09 Fair CLR 36 22 38.8 35.7 44% 41 75.9 0.0
04 18:35 SE 20 16.09 A Few Clouds FEW075 36 22 44% 41 75.9 0.0
04 18:15 SE 26 16.09 Partly Cloudy SCT075 37 23 44% 43 75.9 0.0
04 17:55 S 17 16.09 A Few Clouds FEW075 38 23 42% 44 75.9 0.0
04 17:35 S 17 16.09 Fair CLR 38 23 42% 44 75.9 0.0
04 17:15 S 13 G 28 16.09 Fair CLR 38 23 42% 44 75.9 0.0
04 16:55 SE 19 16.09 Fair CLR 37 23 44% 43 75.9 0.0
04 16:35 SE 17 G 26 16.09 Fair CLR 39 23 40% 46 75.92 0.0
04 16:15 S 13 G 30 16.09 Fair CLR 38 23 42% 44 75.92 0.0
04 15:55 S 19 G 26 16.09 Fair CLR 38 23 42% 44 75.95 0.0
04 15:35 SE 20 G 31 16.09 Fair CLR 38 23 42% 44 75.95 0.0
04 15:15 SE 17 G 30 16.09 Fair CLR 38 23 42% 44 75.97 0.0
04 14:55 S 17 16.09 Fair CLR 38 23 42% 44 75.97 0.0
04 14:35 S 20 G 30 16.09 Fair CLR 38 23 42% 44 76 0.0
04 14:15 S 19 G 31 16.09 Fair CLR 37 22 42% 42 76.02 0.0
04 13:55 S 11 16.09 Fair CLR 37 22 42% 42 76.05 0.0
04 13:35 SE 22 G 31 16.09 Fair CLR 37 22 42% 42 76.05 0.0
04 13:15 SE 22 16.09 Fair CLR 36 23 47% 42 76.05 0.0
04 12:55 S 17 G 33 16.09 Fair CLR 36 22 36.4 23 44% 41 76.07 0.0
04 12:35 SE 24 G 31 16.09 Fair CLR 36 23 47% 42 76.1 0.0
04 12:15 SE 28 G 37 16.09 Fair CLR 35 24 53% 42 76.12 0.0
04 11:55 SE 26 16.09 Fair CLR 34 23 53% 39 76.12 0.0
04 11:35 SE 22 G 30 16.09 Fair CLR 34 24 56% 41 76.15 0.0
04 11:15 S 17 16.09 Partly Cloudy SCT080 33 25 63% 41 76.15 0.0
04 10:35 SE 15 16.09 Mostly Cloudy BKN070 30 27 84% 39 76.15 0.0
04 10:15 SE 15 16.09 Overcast BKN070 OVC075 29 26 84% 36 76.15 0.0
04 09:55 SE 15 16.09 Mostly Cloudy BKN070 29 27 89% 37 76.15 0.0
04 09:35 SE 17 16.09 Partly Cloudy SCT070 28 27 94% 35 76.15 0.0
04 09:15 SE 17 16.09 Fair CLR 27 27 100% 32 76.12 0.0
04 08:55 S 15 16.09 Fair CLR 26 26 100% 28 76.12 0.0
04 08:35 SE 17 16.09 Fair CLR 26 26 100% 28 76.15 0.0
04 08:15 SE 13 16.09 Fair CLR 25 25 100% 25 76.15 0.0
04 07:56 SE 15 16.09 Fair CLR 24 24 100% 23 76.12 0.0
04 07:36 SE 13 16.09 Fair CLR 23 23 100% 76.1 0.0
04 07:15 SE 11 16.09 Fair CLR 23 23 100% 76.1 0.0
04 06:55 SE 15 16.09 Fair CLR 23 23 26.1 22.9 100% 76.07 0.0
04 06:35 SE 11 16.09 Fair CLR 23 23 100% 76.07 0.0
04 06:15 SE 9 16.09 Fair CLR 23 23 100% 76.07 0.0
04 05:55 SE 7 16.09 Fair CLR 23 23 100% 76.07 0.0
04 05:35 SE 6 16.09 Fair CLR 24 24 100% 23 76.07 0.0
04 05:15 S 7 16.09 Fair CLR 24 24 100% 23 76.07 0.0
04 04:55 SE 7 16.09 Fair CLR 24 24 100% 23 76.05 0.0
04 04:35 SE 11 16.09 Partly Cloudy SCT046 24 24 100% 23 76.05 0.0
04 04:15 SE 13 16.09 Overcast OVC050 24 24 100% 23 76.05 0.0
04 03:55 S 9 16.09 Overcast OVC050 24 24 100% 23 76.05 0.0
04 03:35 S 13 16.09 Mostly Cloudy BKN050 25 25 100% 25 76.05 0.0
04 03:15 S 11 16.09 Fair CLR 25 25 100% 25 76.02 0.0
04 02:55 S 7 16.09 Fair CLR 25 25 100% 25 76.02 0.0
04 02:36 SE 13 16.09 Fair CLR 25 25 100% 25 76.02 0.0
04 02:15 SE 11 16.09 Fair CLR 25 25 100% 25 76.02 0.0
04 01:55 SE 11 16.09 Fair CLR 25 25 100% 25 76.02 0.0
04 01:36 SE 9 16.09 Fair CLR 25 25 100% 25 76.05 0.0
04 01:15 SE 9 16.09 Fair CLR 26 26 100% 28 76.05 0.0
04 00:55 SE 11 16.09 Fair CLR 26 25 32.4 25.5 94% 28 76.02 0.0
04 00:35 S 9 16.09 Fair CLR 26 25 94% 28 76.05 0.0
04 00:15 S 6 16.09 Fair CLR 26 25 94% 28 76.02 0.0
03 23:55 SE 7 16.09 Fair CLR 26 25 94% 28 76.02 0.0
03 23:35 SE 11 16.09 Fair CLR 27 24 84% 30 76.02 0.0
03 23:15 SE 11 16.09 Fair CLR 27 24 84% 30 76.02 0.0
03 22:55 S 9 16.09 Fair CLR 27 24 84% 30 76.05 0.0
03 22:35 SE 11 16.09 Fair CLR 28 24 79% 32 76.05 0.0
03 22:15 SE 15 16.09 Fair CLR 28 24 79% 32 76.02 0.0
03 21:55 SE 13 16.09 Fair CLR 28 24 79% 32 76.02 0.0
03 21:35 S 9 16.09 Fair CLR 28 24 79% 32 76.02 0.0
03 21:15 SE 15 16.09 Fair CLR 29 24 74% 34 76 0.0
03 20:55 SE 13 G 26 16.09 Fair CLR 29 24 74% 34 76 0.0
03 20:35 SE 17 G 28 16.09 Fair CLR 29 24 74% 34 75.97 0.0
03 20:15 SE 17 16.09 Fair CLR 30 24 70% 35 75.95 0.0
03 19:55 SE 15 G 28 16.09 Fair CLR 30 24 70% 35 75.92 0.0
03 19:35 SE 22 16.09 Fair CLR 31 24 66% 37 75.95 0.0
03 19:15 SE 26 G 35 16.09 Fair CLR 32 24 63% 38 75.92 0.0
03 18:55 SE 20 G 37 16.09 Fair CLR 32 24 34.9 29.6 63% 38 75.9 0.0
03 18:35 SE 24 G 39 16.09 Fair CLR 33 25 63% 41 75.9 0.0
03 18:15 SE 26 G 44 16.09 A Few Clouds FEW041 33 24 59% 39 75.9 0.0
03 17:55 SE 22 16.09 A Few Clouds FEW041 34 25 59% 42 75.9 0.0
03 17:35 SE 24 G 31 16.09 Mostly Cloudy BKN041 BKN048 34 25 59% 42 75.9 0.0
03 17:15 SE 20 G 30 16.09 Partly Cloudy SCT041 SCT048 34 25 59% 42 75.9 0.0
03 16:55 SE 28 16.09 Fair CLR 34 25 59% 42 75.9 0.0
03 16:35 SE 20 G 37 16.09 A Few Clouds FEW042 34 25 59% 42 75.92 0.0
03 16:15 SE 24 G 35 16.09 Partly Cloudy SCT042 SCT050 34 25 59% 42 75.92 0.0
03 15:55 SE 20 G 33 16.09 Mostly Cloudy BKN040 BKN049 BKN055 34 25 59% 42 75.95 0.0
Date Time (cdt) Wind (kph) Vis. (km) Weather Sky Cond. Air Dwpt Max. Min. Relative Humidity Wind Chill (°C) Heat Index (°C) altimeter (cm) sea level (mb) 1 hr 3 hr 6 hr
6 hour
Temperature (ºC) Pressure Precipitation (cm)